NCAR-RAP Real-Time Weather Data

Output produced by METARs form (10 April 2020  07:10 UTC)
found at http://weather.rap.ucar.edu/surface/
 
KBIL 100653Z 00000KT 10SM FEW200 03/M06 A2988 RMK AO2 SLP131 T00331061 401281028
KBIL 100553Z 36004KT 10SM FEW170 06/M06 A2990 RMK AO2 SLP136 T00561061 10122 20044 58015
KBIL 100453Z 01006KT 10SM FEW170 06/M06 A2992 RMK AO2 SLP145 T00611061
KBIL 100353Z 01003KT 10SM CLR 08/M06 A2994 RMK AO2 SLP152 T00781061
KBIL 100253Z 09005KT 10SM FEW140 09/M06 A2995 RMK AO2 SLP156 T00891061 55010
KBIL 100153Z 10007KT 10SM FEW110 FEW220 09/M06 A2995 RMK AO2 SLP156 ACSL DSNT W-NW T00941056
KBIL 100053Z 11011KT 10SM FEW110 SCT220 12/M06 A2997 RMK AO2 SLP161 T01171056
KBIL 092353Z 10009KT 10SM SCT130 SCT250 12/M05 A2998 RMK AO2 SLP165 T01221050 10128 20056 56029
KBIL 092253Z 13009KT 10SM FEW075 SCT180 SCT260 13/M05 A3001 RMK AO2 SLP171 T01281050
KBIL 092153Z 09008KT 10SM FEW180 BKN250 11/M07 A3004 RMK AO2 SLP182 T01111067
KBIL 092053Z 13008KT 10SM SCT250 11/M06 A3008 RMK AO2 SLP197 T01061061 56037
KBIL 091953Z VRB03KT 10SM SCT250 09/M07 A3011 RMK AO2 SLP211 T00891067
KBIL 091853Z 08007KT 10SM SCT250 08/M06 A3016 RMK AO2 SLP227 T00781061
KBIL 091753Z 10006KT 10SM BKN250 05/M08 A3020 RMK AO2 SLP244 T00501078 10056 21028 58020
KBIL 091653Z VRB03KT 10SM BKN250 03/M08 A3023 RMK AO2 SLP256 T00281083
KBIL 091553Z 08007KT 10SM SCT250 01/M09 A3025 RMK AO2 SLP266 T00111089
KBIL 091453Z 05009KT 10SM SCT250 M01/M09 A3026 RMK AO2 SLP272 T10061094 50006
KBIL 091353Z 06009KT 10SM SCT250 M02/M08 A3027 RMK AO2 SLP274 T10221083
KBIL 091253Z 03009KT 10SM FEW250 M03/M07 A3025 RMK AO2 SLP268 T10281072
KBIL 091153Z 03007KT 10SM FEW250 M02/M07 A3024 RMK AO2 SLP262 T10221067 10028 21028 51006
KBIL 091053Z 05004KT 10SM CLR M01/M07 A3023 RMK AO2 SLP257 T10061067
KBIL 090953Z 09004KT 10SM CLR 01/M07 A3023 RMK AO2 SLP255 T00061067